Time;durP1;ratioP1;P1;durP2;ratioP2;P2;SDS_P1;SDS_P2;PMS_P1;PMS_P2;Temp;Humidity;BMP_temperature;BMP_pressure;BME280_temperature;BME280_humidity;BME280_pressure;Samples;Min_cycle;Max_cycle;Signal;HPM_P1;HPM_P2
2021/05/11 00:02:04;;;;;;;7.33;4.10;;;;;;;19.99;46.51;100046.34;1599670;87;21954;-83
2021/05/11 00:04:30;;;;;;;9.50;3.95;;;;;;;20.01;46.51;100046.42;1602870;87;20972;-84
2021/05/11 00:06:56;;;;;;;10.80;4.15;;;;;;;19.98;46.54;100045.53;1602668;86;22758;-83
2021/05/11 00:09:21;;;;;;;9.38;4.60;;;;;;;19.90;46.73;100051.98;1620575;87;21549;-82
2021/05/11 00:11:47;;;;;;;8.48;4.20;;;;;;;19.83;46.90;100050.41;1619110;86;20986;-83
2021/05/11 00:14:13;;;;;;;9.10;4.53;;;;;;;19.70;46.97;100040.57;1604007;87;23693;-84
2021/05/11 00:16:40;;;;;;;11.18;4.53;;;;;;;19.72;47.10;100050.04;1620774;86;21039;-83
2021/05/11 00:19:10;;;;;;;9.53;4.55;;;;;;;19.57;47.47;100048.73;1624917;85;21151;-83
2021/05/11 00:21:35;;;;;;;7.58;4.15;;;;;;;19.56;47.47;100045.24;1637342;87;21043;-83
2021/05/11 00:24:06;;;;;;;7.42;4.42;;;;;;;19.55;47.51;100046.27;1639397;85;21250;-83
2021/05/11 00:26:34;;;;;;;11.38;5.00;;;;;;;19.47;47.70;100043.87;1637540;85;21258;-84
2021/05/11 00:29:01;;;;;;;8.98;4.42;;;;;;;19.38;47.93;100040.09;1638191;87;21740;-81
2021/05/11 00:31:28;;;;;;;8.80;4.42;;;;;;;19.37;47.94;100041.16;1639429;85;21496;-82
2021/05/11 00:33:57;;;;;;;9.40;4.58;;;;;;;19.23;48.39;100036.90;1616902;87;21211;-83
2021/05/11 00:36:24;;;;;;;12.30;4.72;;;;;;;19.24;48.31;100039.89;1638047;86;21226;-82
2021/05/11 00:38:50;;;;;;;9.25;4.50;;;;;;;19.14;48.44;100037.70;1638748;86;21226;-83
2021/05/11 00:41:18;;;;;;;12.10;4.72;;;;;;;19.12;48.91;100033.58;1638858;85;20984;-84
2021/05/11 00:43:44;;;;;;;10.35;4.55;;;;;;;19.05;48.76;100028.28;1637100;85;21384;-89
2021/05/11 00:46:10;;;;;;;11.28;4.65;;;;;;;19.05;48.82;100030.11;1620970;86;22526;-84
2021/05/11 00:48:36;;;;;;;7.65;4.22;;;;;;;18.92;49.21;100022.45;1638668;85;21634;-84
2021/05/11 00:51:07;;;;;;;9.23;4.70;;;;;;;18.85;49.35;100025.70;1622065;86;21424;-83
2021/05/11 00:53:34;;;;;;;9.30;4.40;;;;;;;18.85;49.38;100028.38;1638261;86;21257;-88
2021/05/11 00:56:01;;;;;;;9.73;4.78;;;;;;;18.91;49.50;100032.88;1637171;85;21697;-83
2021/05/11 00:58:26;;;;;;;7.90;4.63;;;;;;;18.99;49.38;100029.95;1626198;86;21213;-83
2021/05/11 01:00:53;;;;;;;11.25;4.75;;;;;;;19.02;49.40;100034.06;1614265;86;20970;-81
2021/05/11 01:03:21;;;;;;;9.75;5.10;;;;;;;19.08;49.31;100040.39;1639695;85;21234;-83
2021/05/11 01:05:48;;;;;;;8.93;4.58;;;;;;;19.10;49.37;100034.33;1639423;85;21233;-80
2021/05/11 01:08:19;;;;;;;8.03;4.58;;;;;;;19.17;49.06;100035.92;1638969;86;22254;-80
2021/05/11 01:10:47;;;;;;;8.40;4.15;;;;;;;19.11;49.22;100030.59;1637976;85;21241;-80
2021/05/11 01:13:12;;;;;;;8.08;4.33;;;;;;;19.11;49.07;100027.91;1644109;85;21234;-90
2021/05/11 01:15:41;;;;;;;9.70;4.83;;;;;;;19.07;49.27;100029.41;1619891;87;22230;-81
2021/05/11 01:18:07;;;;;;;12.07;4.85;;;;;;;19.06;49.24;100025.07;1638850;85;21963;-80
2021/05/11 01:20:44;;;;;;;12.03;4.65;;;;;;;19.06;49.26;100029.90;1636848;86;21945;-80
2021/05/11 01:25:34;;;;;;;12.45;4.90;;;;;;;18.93;49.39;100024.64;1633142;86;21244;-80
2021/05/11 01:28:19;;;;;;;9.00;4.60;;;;;;;18.79;49.84;100028.67;1638537;86;21458;-81
2021/05/11 01:44:48;;;;;;;10.15;4.35;;;;;;;18.58;50.39;100028.48;1690796;83;21051;-80
2021/05/11 01:47:03;;;;;;;8.83;4.78;;;;;;;18.47;50.64;100027.78;1695836;82;21209;-79
2021/05/11 01:49:34;;;;;;;10.28;4.35;;;;;;;18.42;50.78;100024.40;1691276;83;21183;-82
2021/05/11 02:11:14;;;;;;;10.30;4.45;;;;;;;18.19;51.79;100019.53;1687021;83;21524;-80
2021/05/11 02:24:10;;;;;;;6.80;4.12;;;;;;;18.27;51.78;100013.98;1677206;83;21196;-80
2021/05/11 02:26:33;;;;;;;8.90;4.67;;;;;;;18.25;51.74;100017.35;1670824;83;21175;-84
2021/05/11 02:28:58;;;;;;;8.55;4.53;;;;;;;18.24;51.82;100023.75;1674486;84;21056;-85
2021/05/11 02:31:26;;;;;;;7.80;4.15;;;;;;;18.17;52.17;100024.27;1673029;83;21109;-81
2021/05/11 02:33:51;;;;;;;;;;;;;;;18.11;52.26;100019.77;1649880;84;21218;-82
2021/05/11 02:36:17;;;;;;;10.03;4.20;;;;;;;18.01;52.59;100019.39;1679435;83;20297;-83
2021/05/11 02:38:44;;;;;;;8.20;4.47;;;;;;;17.92;52.68;100014.24;1676278;83;21289;-84
2021/05/11 02:41:10;;;;;;;6.75;4.10;;;;;;;17.85;53.02;100010.75;1664780;83;21205;-83
2021/05/11 02:43:39;;;;;;;7.58;4.25;;;;;;;17.83;53.03;100021.32;1684709;84;20913;-86
2021/05/11 02:46:06;;;;;;;11.05;4.53;;;;;;;17.79;53.16;100020.92;1681331;83;21442;-83
2021/05/11 02:48:32;;;;;;;8.20;4.58;;;;;;;17.72;53.50;100022.77;1672990;83;21263;-88
2021/05/11 02:51:00;;;;;;;11.43;4.20;;;;;;;17.71;53.52;100023.78;1674505;83;21139;-83
2021/05/11 02:53:25;;;;;;;6.80;4.20;;;;;;;17.66;53.48;100019.58;1677217;83;21128;-85
2021/05/11 02:55:51;;;;;;;11.08;4.60;;;;;;;17.66;53.57;100024.92;1679230;83;20977;-82
2021/05/11 02:58:23;;;;;;;14.75;4.53;;;;;;;17.59;53.69;100023.07;1670169;84;21212;-83
2021/05/11 03:00:51;;;;;;;10.48;4.42;;;;;;;17.66;53.62;100015.05;1670200;83;21196;-82
2021/05/11 03:03:18;;;;;;;7.53;4.35;;;;;;;17.61;53.68;100023.39;1668569;84;22313;-81
2021/05/11 03:05:43;;;;;;;8.00;4.58;;;;;;;17.53;53.96;100019.89;1676034;84;21180;-81
2021/05/11 03:08:13;;;;;;;8.78;4.65;;;;;;;17.61;53.71;100022.05;1679194;83;20965;-83
2021/05/11 03:10:39;;;;;;;12.23;4.55;;;;;;;17.45;54.10;100018.77;1676397;84;21910;-81
2021/05/11 03:13:08;;;;;;;8.45;4.50;;;;;;;17.49;53.93;100017.30;1677460;83;21043;-84
2021/05/11 03:15:37;;;;;;;8.83;4.25;;;;;;;17.52;53.78;100018.23;1669211;84;21219;-83
2021/05/11 03:18:05;;;;;;;10.72;4.72;;;;;;;17.47;53.93;100014.03;1676651;84;21274;-89
2021/05/11 03:20:38;;;;;;;11.85;4.40;;;;;;;17.56;53.75;100013.33;1679827;84;21207;-82
2021/05/11 03:23:06;;;;;;;10.00;4.22;;;;;;;17.54;53.73;100017.53;1687279;83;21643;-81
2021/05/11 03:25:33;;;;;;;10.10;4.42;;;;;;;17.53;53.77;100006.54;1683237;84;21164;-84
2021/05/11 03:28:00;;;;;;;9.23;4.33;;;;;;;17.47;53.82;100016.70;1670968;84;21221;-86
2021/05/11 03:30:27;;;;;;;7.92;4.40;;;;;;;17.47;53.82;100012.70;1672186;84;21172;-81
2021/05/11 03:32:54;;;;;;;8.93;4.45;;;;;;;17.56;53.67;100010.66;1690907;83;22148;-81
2021/05/11 03:35:20;;;;;;;9.65;4.58;;;;;;;17.58;53.72;100014.74;1687565;83;21234;-82
2021/05/11 03:37:46;;;;;;;10.13;4.37;;;;;;;17.52;53.56;100011.56;1688098;83;21068;-85
2021/05/11 03:40:12;;;;;;;7.75;4.60;;;;;;;17.43;53.72;100016.79;1691100;83;21615;-83
2021/05/11 03:42:52;;;;;;;8.70;4.80;;;;;;;17.39;53.97;100008.91;1689947;83;21181;-82
2021/05/11 03:45:12;;;;;;;9.90;4.42;;;;;;;17.50;53.69;100012.81;1686984;84;21031;-83
2021/05/11 03:47:44;;;;;;;10.32;5.00;;;;;;;17.49;53.59;100015.16;1691027;82;21177;-83
2021/05/11 03:50:12;;;;;;;9.50;4.35;;;;;;;17.53;53.51;100023.89;1690097;82;21159;-83
2021/05/11 03:52:39;;;;;;;13.35;4.83;;;;;;;17.52;53.55;100024.09;1692974;83;21165;-82
2021/05/11 03:55:07;;;;;;;11.85;4.28;;;;;;;17.53;53.61;100022.55;1687193;84;21455;-86
2021/05/11 03:57:34;;;;;;;8.53;4.55;;;;;;;17.64;53.31;100010.97;1692460;83;21259;-87
2021/05/11 04:00:00;;;;;;;8.95;4.67;;;;;;;17.73;52.99;100014.55;1690830;83;21224;-84
2021/05/11 04:02:26;;;;;;;9.78;4.50;;;;;;;17.69;53.19;100005.81;1691287;83;21172;-85
2021/05/11 04:04:55;;;;;;;12.23;4.70;;;;;;;17.72;53.22;100006.22;1694174;83;21439;-84
2021/05/11 04:07:20;;;;;;;8.40;4.37;;;;;;;17.74;52.97;100011.35;1689091;83;21205;-84
2021/05/11 04:12:29;;;;;;;9.28;4.60;;;;;;;17.87;52.83;100016.69;1697206;82;20930;-82
2021/05/11 04:17:12;;;;;;;9.00;4.55;;;;;;;17.93;52.77;100020.42;1657946;82;21191;-84
2021/05/11 04:19:39;;;;;;;10.35;4.62;;;;;;;18.01;52.54;100020.73;1693393;82;21001;-80
2021/05/11 04:22:05;;;;;;;8.85;4.55;;;;;;;18.09;52.40;100021.83;1692786;82;21203;-81
2021/05/11 04:24:33;;;;;;;10.48;4.35;;;;;;;17.99;52.24;100001.39;1691474;83;21227;-80
2021/05/11 04:27:01;;;;;;;10.45;4.78;;;;;;;18.18;52.12;100030.42;1692334;83;21204;-81
2021/05/11 04:29:28;;;;;;;11.85;5.28;;;;;;;18.30;51.96;100028.26;1691673;84;21174;-80
2021/05/11 04:31:53;;;;;;;10.45;4.65;;;;;;;18.40;51.58;100035.02;1690138;82;21200;-80
2021/05/11 04:34:19;;;;;;;17.62;5.22;;;;;;;18.45;51.65;100028.52;1693728;83;20943;-79
2021/05/11 04:36:48;;;;;;;7.72;4.55;;;;;;;18.53;51.47;100030.14;1686716;83;21252;-81
2021/05/11 04:39:14;;;;;;;10.48;4.90;;;;;;;18.73;51.13;100031.39;1690789;83;21213;-80
2021/05/11 04:41:44;;;;;;;9.50;4.30;;;;;;;18.81;50.73;100032.48;1691215;84;22284;-81
2021/05/11 04:44:11;;;;;;;10.70;4.72;;;;;;;18.99;50.28;100032.63;1690181;83;21164;-85
2021/05/11 04:46:44;;;;;;;9.73;4.80;;;;;;;19.00;50.39;100034.27;1688867;83;21073;-80
2021/05/11 04:49:06;;;;;;;8.83;4.58;;;;;;;19.08;50.01;100027.01;1693358;82;23064;-82
2021/05/11 04:51:35;;;;;;;14.33;5.25;;;;;;;19.24;49.82;100029.18;1719693;82;21038;-87
2021/05/11 04:54:01;;;;;;;9.70;4.75;;;;;;;19.21;49.55;100024.26;1693625;83;21254;-79
2021/05/11 04:56:28;;;;;;;10.05;4.80;;;;;;;19.29;49.49;100028.53;1690499;83;21137;-80
2021/05/11 04:58:55;;;;;;;10.32;4.65;;;;;;;19.29;49.69;100032.02;1670042;84;21150;-80
2021/05/11 05:01:21;;;;;;;8.95;4.30;;;;;;;19.35;49.37;100033.83;1691159;83;21429;-81
2021/05/11 05:03:51;;;;;;;11.10;4.90;;;;;;;19.36;49.37;100034.67;1694430;82;21714;-81
2021/05/11 05:06:18;;;;;;;10.03;4.83;;;;;;;19.41;49.05;100040.72;1698677;82;21078;-86
2021/05/11 05:08:43;;;;;;;7.40;4.22;;;;;;;19.55;48.99;100038.23;1695937;82;21089;-81
2021/05/11 05:11:10;;;;;;;7.22;4.05;;;;;;;19.58;48.96;100037.80;1694556;83;20923;-80
2021/05/11 05:13:38;;;;;;;9.10;4.33;;;;;;;19.73;48.69;100026.23;1693150;82;21176;-83
2021/05/11 05:16:04;;;;;;;10.90;4.30;;;;;;;19.79;48.48;100033.92;1688968;83;21604;-85
2021/05/11 05:18:30;;;;;;;7.00;4.30;;;;;;;19.86;48.33;100023.17;1693004;82;20977;-82
2021/05/11 05:20:56;;;;;;;9.00;4.58;;;;;;;19.88;48.05;100022.42;1686883;83;21273;-80
2021/05/11 05:23:32;;;;;;;9.60;4.60;;;;;;;19.95;48.00;100021.01;1675237;82;21227;-86
2021/05/11 05:26:05;;;;;;;12.70;4.30;;;;;;;19.90;47.97;100021.67;1698943;82;21086;-86
2021/05/11 05:28:29;;;;;;;9.73;4.50;;;;;;;19.91;47.63;100017.95;1686366;83;21116;-81
2021/05/11 05:31:02;;;;;;;10.75;4.40;;;;;;;20.07;47.50;100013.37;1689511;82;21207;-83
2021/05/11 05:33:41;;;;;;;8.93;4.67;;;;;;;20.13;47.51;100012.18;1690281;83;21169;-87
2021/05/11 05:36:09;;;;;;;10.45;4.58;;;;;;;20.16;47.17;100017.09;1689591;83;21188;-85
2021/05/11 05:38:40;;;;;;;13.35;5.03;;;;;;;20.28;47.19;100015.31;1691116;83;21529;-83
2021/05/11 05:41:08;;;;;;;9.80;4.65;;;;;;;20.20;46.98;100015.62;1691913;82;22434;-83
2021/05/11 05:43:32;;;;;;;10.25;4.62;;;;;;;20.30;46.88;100018.58;1689224;82;21211;-86
2021/05/11 05:45:59;;;;;;;12.90;4.65;;;;;;;20.25;46.97;100021.13;1689469;83;21217;-81
2021/05/11 05:48:26;;;;;;;8.58;4.22;;;;;;;20.26;46.82;100022.77;1688435;83;21213;-83
2021/05/11 05:50:55;;;;;;;8.35;4.42;;;;;;;20.29;46.58;100014.28;1691185;84;21286;-83
2021/05/11 05:53:30;;;;;;;8.05;4.67;;;;;;;20.41;46.44;100020.51;1685683;84;21217;-84
2021/05/11 05:55:51;;;;;;;8.30;4.30;;;;;;;20.65;46.19;100015.33;1695082;82;21217;-82
2021/05/11 05:58:18;;;;;;;7.40;4.30;;;;;;;20.84;46.01;100024.69;1693588;83;21021;-82
2021/05/11 06:00:44;;;;;;;8.75;4.20;;;;;;;20.93;45.71;100017.95;1685771;84;21143;-85
2021/05/11 06:05:56;;;;;;;9.28;4.20;;;;;;;21.14;45.40;100018.75;1690079;83;21069;-84
2021/05/11 06:08:22;;;;;;;9.23;3.87;;;;;;;21.23;45.24;100018.45;1685370;83;21289;-83
2021/05/11 06:10:53;;;;;;;8.50;4.30;;;;;;;21.32;45.18;100013.05;1694781;83;20943;-83
2021/05/11 06:13:19;;;;;;;9.50;4.30;;;;;;;21.49;44.79;100013.22;1691691;82;21098;-88
2021/05/11 06:18:31;;;;;;;13.35;3.85;;;;;;;21.56;44.29;100011.76;1690004;83;21084;-86
2021/05/11 06:21:01;;;;;;;10.93;4.28;;;;;;;21.70;43.86;100001.06;1689738;83;21193;-83
2021/05/11 06:23:27;;;;;;;11.30;4.10;;;;;;;21.76;43.78;100006.86;1686891;83;21209;-85
2021/05/11 06:25:54;;;;;;;9.73;4.35;;;;;;;21.86;43.80;100007.09;1692354;83;20969;-85
2021/05/11 06:28:20;;;;;;;9.78;4.55;;;;;;;21.82;43.51;99997.86;1689736;83;21328;-85
2021/05/11 06:30:45;;;;;;;8.18;4.08;;;;;;;21.71;43.63;100005.94;1673690;83;21256;-82
2021/05/11 06:33:13;;;;;;;8.80;3.92;;;;;;;21.79;43.59;100001.02;1688957;83;20977;-85
2021/05/11 06:35:39;;;;;;;7.95;4.33;;;;;;;21.79;43.39;100003.70;1687523;83;21223;-83
2021/05/11 06:38:05;;;;;;;7.92;4.03;;;;;;;21.95;43.41;100001.36;1685384;83;21212;-82
2021/05/11 06:40:32;;;;;;;8.25;4.12;;;;;;;22.04;43.31;99998.06;1665630;84;21200;-82
2021/05/11 06:42:59;;;;;;;7.30;3.90;;;;;;;22.03;42.64;99994.27;1692418;83;21241;-82
2021/05/11 06:53:38;;;;;;;9.13;3.80;;;;;;;22.37;42.43;99983.71;1692562;84;21181;-79
2021/05/11 06:56:05;;;;;;;8.13;3.80;;;;;;;22.36;42.46;99988.83;1689828;83;21185;-80
2021/05/11 06:58:32;;;;;;;7.10;3.60;;;;;;;22.39;41.91;99987.00;1667968;83;21284;-84
2021/05/11 07:00:57;;;;;;;7.72;3.70;;;;;;;22.52;41.93;99989.40;1665596;84;20930;-83
2021/05/11 07:03:23;;;;;;;7.35;3.50;;;;;;;22.56;41.92;99986.53;1686262;84;21020;-83
2021/05/11 07:05:51;;;;;;;9.78;4.00;;;;;;;22.66;42.13;99985.09;1692308;83;21215;-80
2021/05/11 07:08:34;;;;;;;10.35;4.00;;;;;;;22.67;41.92;99983.51;1689973;83;21627;-80
2021/05/11 07:11:00;;;;;;;8.85;3.58;;;;;;;22.80;41.53;99985.63;1691359;82;21287;-86
2021/05/11 07:13:27;;;;;;;10.05;3.80;;;;;;;23.02;41.74;99981.16;1694363;82;21199;-87
2021/05/11 07:15:54;;;;;;;8.95;3.45;;;;;;;23.05;41.82;99973.14;1691309;83;21232;-82
2021/05/11 07:18:22;;;;;;;7.25;3.65;;;;;;;23.20;40.65;99974.77;1694590;83;21931;-81
2021/05/11 07:20:49;;;;;;;8.33;3.58;;;;;;;23.34;40.73;99967.70;1689317;84;21246;-87
2021/05/11 07:23:19;;;;;;;6.58;3.27;;;;;;;23.43;40.47;99970.27;1676643;83;21303;-83
2021/05/11 07:31:14;;;;;;;6.55;3.27;;;;;;;23.59;40.27;99965.95;1668886;83;21665;-88
2021/05/11 07:33:44;;;;;;;8.00;3.85;;;;;;;23.65;39.77;99973.86;1670432;83;21236;-89
2021/05/11 07:36:10;;;;;;;10.48;3.62;;;;;;;23.64;39.94;99970.86;1672641;83;21569;-84
2021/05/11 07:38:36;;;;;;;7.03;3.50;;;;;;;23.61;39.81;99970.01;1670316;84;21227;-88
2021/05/11 07:41:07;;;;;;;7.10;3.50;;;;;;;23.66;39.66;99970.11;1673774;84;20979;-84
2021/05/11 07:43:37;;;;;;;6.28;3.50;;;;;;;23.62;39.81;99972.20;1672285;84;21650;-85
2021/05/11 08:05:23;;;;;;;6.35;3.22;;;;;;;24.20;38.64;99952.49;1671655;84;21228;-84
2021/05/11 08:15:58;;;;;;;6.08;3.10;;;;;;;24.55;37.62;99945.88;1666198;83;21203;-83
2021/05/11 08:27:27;;;;;;;8.85;3.40;;;;;;;24.94;37.57;99945.74;1676465;84;21208;-83
2021/05/11 08:28:43;;;;;;;9.28;2.92;;;;;;;25.13;37.12;99942.66;1676622;83;21085;-85
2021/05/11 08:31:12;;;;;;;5.22;3.02;;;;;;;25.24;36.87;99937.60;1675881;83;21222;-84
2021/05/11 08:33:38;;;;;;;11.15;3.00;;;;;;;25.44;36.79;99939.13;1676012;83;21234;-82
2021/05/11 08:36:08;;;;;;;8.18;3.37;;;;;;;25.53;36.94;99940.01;1675220;83;21223;-84
2021/05/11 08:38:34;;;;;;;9.38;3.22;;;;;;;25.37;36.92;99941.26;1675651;83;21105;-87
2021/05/11 08:41:00;;;;;;;8.30;3.30;;;;;;;25.36;36.59;99938.81;1675932;84;20988;-82
2021/05/11 08:43:37;;;;;;;9.28;3.08;;;;;;;25.51;36.85;99943.49;1676242;83;21184;-85
2021/05/11 08:46:10;;;;;;;6.53;3.25;;;;;;;25.66;36.89;99940.88;1675729;83;21188;-83
2021/05/11 08:48:37;;;;;;;6.45;2.98;;;;;;;25.74;36.83;99943.09;1676974;83;21077;-86
2021/05/11 08:51:27;;;;;;;8.20;3.25;;;;;;;25.70;36.26;99935.23;1658473;84;21439;-83
2021/05/11 09:07:41;;;;;;;9.43;3.00;;;;;;;25.83;35.84;99938.00;1635794;85;21217;-85
2021/05/11 09:30:02;;;;;;;8.53;2.85;;;;;;;26.32;34.68;99932.83;1676036;83;22379;-79
2021/05/11 09:54:41;;;;;;;7.25;2.67;;;;;;;26.68;34.45;99903.94;1675397;84;21192;-81
2021/05/11 10:36:45;;;;;;;9.75;2.50;;;;;;;27.53;32.07;99876.80;1674960;84;21184;-83
2021/05/11 10:46:58;;;;;;;5.12;2.20;;;;;;;27.82;31.79;99873.42;1676422;84;21187;-86
2021/05/11 10:49:39;;;;;;;4.50;2.05;;;;;;;27.82;31.74;99867.19;1676858;83;21191;-89
2021/05/11 10:52:22;;;;;;;6.83;2.42;;;;;;;27.79;31.83;99864.48;1675595;83;21461;-84
2021/05/11 10:55:15;;;;;;;4.80;2.12;;;;;;;27.79;32.00;99859.61;1678629;83;21196;-85
2021/05/11 10:57:53;;;;;;;6.83;2.40;;;;;;;27.84;32.00;99860.38;1675447;84;21701;-83
2021/05/11 11:00:29;;;;;;;6.78;1.98;;;;;;;27.92;31.75;99858.46;1673722;84;21634;-85
2021/05/11 11:03:16;;;;;;;6.03;2.40;;;;;;;27.91;31.95;99865.52;1676102;84;21261;-82
2021/05/11 11:06:02;;;;;;;7.12;2.50;;;;;;;27.98;32.04;99854.38;1676948;84;21625;-81
2021/05/11 11:08:36;;;;;;;6.97;2.33;;;;;;;28.11;31.75;99856.50;1676230;84;21112;-88
2021/05/11 11:11:20;;;;;;;6.53;2.40;;;;;;;28.04;31.55;99854.63;1676396;84;21696;-86
2021/05/11 11:13:51;;;;;;;6.95;2.50;;;;;;;28.21;31.28;99845.55;1676510;84;21223;-82
2021/05/11 11:16:19;;;;;;;5.15;2.30;;;;;;;28.07;31.15;99845.92;1641298;85;21176;-87
2021/05/11 11:18:45;;;;;;;8.18;2.33;;;;;;;28.08;31.44;99842.92;1649376;84;21621;-82
2021/05/11 11:21:21;;;;;;;7.58;2.12;;;;;;;28.20;31.49;99843.95;1663591;84;21216;-85
2021/05/11 11:23:56;;;;;;;5.08;2.12;;;;;;;28.25;31.54;99838.48;1681821;84;21262;-87
2021/05/11 11:26:42;;;;;;;6.47;2.30;;;;;;;28.35;31.37;99836.78;1688624;84;22042;-92
2021/05/11 11:29:11;;;;;;;5.25;2.45;;;;;;;28.52;31.57;99845.34;1689684;82;21707;-88
2021/05/11 11:31:44;;;;;;;4.60;2.27;;;;;;;28.42;31.20;99821.80;1694869;82;21343;-88
2021/05/11 11:34:35;;;;;;;6.80;2.30;;;;;;;28.65;31.25;99837.11;1683822;84;21145;-80
2021/05/11 11:37:16;;;;;;;5.03;2.30;;;;;;;28.71;31.31;99841.97;1714572;82;21231;-79
2021/05/11 11:39:49;;;;;;;4.72;2.20;;;;;;;28.69;31.29;99836.02;1691607;83;21189;-82
2021/05/11 11:42:30;;;;;;;8.13;2.60;;;;;;;28.94;30.87;99829.53;1669898;84;21181;-86
2021/05/11 11:44:58;;;;;;;4.55;2.10;;;;;;;28.93;30.82;99828.73;1690750;84;21204;-84
2021/05/11 11:47:25;;;;;;;11.55;2.58;;;;;;;29.00;30.72;99830.55;1690063;83;21094;-86
2021/05/11 11:50:00;;;;;;;5.95;2.35;;;;;;;29.20;30.77;99846.44;1694069;82;21192;-87
2021/05/11 11:52:36;;;;;;;8.30;2.22;;;;;;;29.23;30.45;99842.34;1684898;82;21693;-84
2021/05/11 12:00:22;;;;;;;7.00;2.30;;;;;;;28.97;30.42;99826.24;1690625;84;21236;-91
2021/05/11 12:02:59;;;;;;;8.13;2.70;;;;;;;29.05;30.37;99827.52;1689504;83;21196;-84
2021/05/11 12:05:30;;;;;;;10.80;2.62;;;;;;;29.09;30.70;99824.50;1691449;83;21169;-82
2021/05/11 12:10:49;;;;;;;10.72;2.50;;;;;;;29.32;30.86;99827.81;1692135;83;21597;-83
2021/05/11 12:13:23;;;;;;;6.70;2.35;;;;;;;29.25;30.28;99821.89;1688080;83;21599;-85
2021/05/11 12:16:24;;;;;;;6.30;2.40;;;;;;;29.14;30.47;99814.92;1686517;82;21241;-86
2021/05/11 12:19:08;;;;;;;8.73;2.47;;;;;;;29.09;30.50;99813.06;1654413;85;21804;-82
2021/05/11 12:21:40;;;;;;;6.42;2.40;;;;;;;29.20;30.39;99808.36;1650197;85;21834;-82
2021/05/11 12:24:12;;;;;;;5.70;2.40;;;;;;;29.28;30.34;99812.36;1668154;84;21223;-88
2021/05/11 12:26:44;;;;;;;7.20;2.50;;;;;;;29.37;30.46;99805.19;1695147;82;21179;-84
2021/05/11 12:29:17;;;;;;;6.55;2.40;;;;;;;29.51;30.20;99803.37;1691166;82;21175;-83
2021/05/11 12:31:48;;;;;;;6.70;2.20;;;;;;;29.40;30.02;99803.77;1691097;84;21172;-90
2021/05/11 12:34:25;;;;;;;10.70;2.50;;;;;;;29.43;29.96;99801.83;1691761;82;22214;-82
2021/05/11 12:37:01;;;;;;;5.70;2.30;;;;;;;29.54;30.04;99796.55;1689129;83;21948;-85
2021/05/11 12:39:46;;;;;;;8.65;2.40;;;;;;;29.51;29.67;99799.28;1692697;83;21191;-88
2021/05/11 12:42:25;;;;;;;7.12;2.33;;;;;;;29.72;29.91;99794.40;1695194;83;21057;-87
2021/05/11 12:45:08;;;;;;;7.60;2.70;;;;;;;29.85;29.47;99785.28;1686690;83;21225;-87
2021/05/11 12:47:52;;;;;;;6.40;2.70;;;;;;;29.83;29.43;99803.80;1688205;83;21209;-85
2021/05/11 12:50:26;;;;;;;9.93;2.60;;;;;;;30.04;29.29;99796.96;1694091;82;21211;-86
2021/05/11 12:52:54;;;;;;;9.13;2.30;;;;;;;30.11;29.45;99795.78;1691639;82;21207;-87
2021/05/11 13:04:37;;;;;;;10.03;2.45;;;;;;;30.24;28.23;99786.88;1691189;83;21211;-88
2021/05/11 13:20:22;;;;;;;6.45;2.50;;;;;;;30.28;28.47;99757.91;1693358;83;21193;-86
2021/05/11 13:22:54;;;;;;;7.35;2.37;;;;;;;30.35;28.44;99759.72;1697255;82;21165;-85
2021/05/11 13:30:38;;;;;;;8.33;2.60;;;;;;;30.53;27.87;99747.72;1703847;82;21678;-88
2021/05/11 13:35:35;;;;;;;10.88;2.50;;;;;;;30.58;27.40;99744.92;1701070;83;21061;-88
2021/05/11 13:38:02;;;;;;;6.53;2.10;;;;;;;30.76;27.25;99749.50;1703730;82;21192;-89
2021/05/11 13:40:29;;;;;;;10.70;2.52;;;;;;;30.73;27.41;99750.10;1668496;83;21196;-90
2021/05/11 13:42:55;;;;;;;4.72;2.25;;;;;;;30.91;27.27;99753.84;1704039;83;21904;-89
2021/05/11 13:45:24;;;;;;;8.63;2.27;;;;;;;31.02;27.37;99744.14;1704092;82;21576;-87
2021/05/11 13:48:16;;;;;;;9.18;2.70;;;;;;;31.28;26.29;99743.06;1705232;84;21144;-90
2021/05/11 13:53:14;;;;;;;5.22;2.30;;;;;;;31.56;25.80;99730.77;1700054;84;21022;-87
2021/05/11 14:03:38;;;;;;;7.90;2.40;;;;;;;32.13;25.04;99728.91;1700976;83;21081;-87
2021/05/11 14:06:04;;;;;;;12.95;2.37;;;;;;;31.91;25.24;99732.42;1672800;83;21454;-87
2021/05/11 14:08:35;;;;;;;5.62;2.05;;;;;;;32.20;25.12;99734.18;1703880;82;21193;-84
2021/05/11 14:11:03;;;;;;;5.85;1.95;;;;;;;32.25;25.13;99724.25;1700295;82;21208;-84
2021/05/11 14:13:28;;;;;;;11.43;2.52;;;;;;;32.26;24.95;99732.70;1702528;82;21181;-85
2021/05/11 14:15:58;;;;;;;6.40;2.10;;;;;;;32.49;24.86;99726.08;1701522;82;21219;-87
2021/05/11 14:18:24;;;;;;;7.65;2.25;;;;;;;32.45;24.46;99725.09;1702494;83;21212;-86
2021/05/11 14:20:52;;;;;;;5.57;2.20;;;;;;;32.41;24.50;99730.12;1701829;83;21796;-86
2021/05/11 14:23:19;;;;;;;8.58;2.37;;;;;;;32.55;24.63;99724.83;1695594;83;21147;-85
2021/05/11 14:25:46;;;;;;;7.20;2.20;;;;;;;32.36;24.38;99721.50;1674900;84;22360;-86
2021/05/11 14:28:15;;;;;;;4.55;2.22;;;;;;;32.52;24.32;99726.00;1678176;84;21183;-84
2021/05/11 14:30:48;;;;;;;9.50;2.40;;;;;;;32.46;24.08;99720.41;1634551;84;21203;-87
2021/05/11 14:33:16;;;;;;;8.00;1.98;;;;;;;32.62;24.14;99718.11;1675891;83;21606;-87
2021/05/11 14:35:46;;;;;;;4.75;1.87;;;;;;;32.65;23.98;99712.84;1676956;84;21591;-90
2021/05/11 14:38:14;;;;;;;7.75;2.22;;;;;;;32.75;23.46;99714.47;1676405;84;21104;-87
2021/05/11 14:40:47;;;;;;;4.75;1.82;;;;;;;32.86;23.45;99727.30;1683888;84;21151;-86
2021/05/11 14:43:18;;;;;;;6.55;2.47;;;;;;;33.11;23.50;99716.19;1671180;84;21207;-85
2021/05/11 14:45:47;;;;;;;4.95;2.05;;;;;;;33.18;23.15;99727.52;1673894;84;21938;-86
2021/05/11 14:48:17;;;;;;;8.23;1.90;;;;;;;33.13;23.01;99720.80;1676690;83;21213;-86
2021/05/11 14:50:49;;;;;;;4.08;1.80;;;;;;;33.60;22.98;99727.09;1676095;84;21229;-87
2021/05/11 14:53:18;;;;;;;3.50;1.75;;;;;;;34.05;22.90;99721.88;1676933;83;21183;-85
2021/05/11 14:55:44;;;;;;;8.55;1.90;;;;;;;34.15;22.35;99725.64;1671610;84;21218;-86
2021/05/11 14:58:12;;;;;;;4.90;1.70;;;;;;;34.42;22.09;99714.09;1680628;84;21259;-88
2021/05/11 15:00:44;;;;;;;7.30;2.10;;;;;;;34.70;22.06;99716.64;1677697;84;21061;-87
2021/05/11 15:03:14;;;;;;;4.40;1.70;;;;;;;34.88;21.86;99712.47;1681569;84;21146;-87
2021/05/11 15:05:44;;;;;;;5.55;2.10;;;;;;;36.15;20.58;99719.41;1676496;84;21183;-86
2021/05/11 15:08:12;;;;;;;7.05;1.80;;;;;;;38.38;17.99;99714.66;1617442;87;21729;-87
2021/05/11 15:10:43;;;;;;;4.75;1.98;;;;;;;39.46;16.49;99726.08;1640877;85;21231;-87
2021/05/11 15:13:11;;;;;;;5.58;1.57;;;;;;;41.00;15.33;99719.83;1634879;86;21235;-87
2021/05/11 15:15:41;;;;;;;6.85;1.80;;;;;;;40.11;16.04;99703.91;1627386;86;21260;-88
2021/05/11 15:18:08;;;;;;;5.12;1.47;;;;;;;39.13;16.72;99712.95;1605151;86;22149;-90
2021/05/11 15:20:34;;;;;;;12.33;1.80;;;;;;;38.96;17.06;99701.69;1597788;86;21225;-90
2021/05/11 15:23:02;;;;;;;3.08;1.42;;;;;;;38.65;17.21;99707.27;1633101;86;21029;-89
2021/05/11 15:25:31;;;;;;;7.08;1.80;;;;;;;40.15;16.19;99700.61;1660691;84;21204;-88
2021/05/11 15:28:02;;;;;;;5.17;1.60;;;;;;;41.39;14.87;99701.58;1674071;84;21224;-87
2021/05/11 15:30:32;;;;;;;4.85;1.57;;;;;;;40.95;14.77;99692.47;1672926;84;21165;-86
2021/05/11 15:32:58;;;;;;;6.37;1.65;;;;;;;41.19;14.46;99691.80;1668697;85;21159;-86
2021/05/11 15:35:29;;;;;;;7.10;1.65;;;;;;;42.25;14.03;99691.25;1647423;85;21342;-84
2021/05/11 15:38:00;;;;;;;5.15;1.65;;;;;;;42.62;13.66;99682.06;1673661;84;21077;-87
2021/05/11 15:40:31;;;;;;;6.17;1.60;;;;;;;42.22;13.83;99688.67;1669932;85;21197;-83
2021/05/11 15:42:58;;;;;;;6.03;1.57;;;;;;;42.52;13.45;99691.89;1668928;84;21168;-86
2021/05/11 15:45:25;;;;;;;6.92;1.77;;;;;;;42.55;13.51;99686.17;1668203;84;21193;-88
2021/05/11 15:47:53;;;;;;;4.87;1.70;;;;;;;43.47;12.89;99691.31;1672868;85;21231;-86
2021/05/11 15:50:33;;;;;;;3.80;1.57;;;;;;;43.52;13.11;99691.74;1673958;84;21166;-86
2021/05/11 15:53:04;;;;;;;3.83;1.50;;;;;;;43.52;12.75;99690.35;1641976;85;21201;-88
2021/05/11 15:55:32;;;;;;;7.42;1.92;;;;;;;43.14;12.89;99677.25;1671379;84;21899;-88